Harrisburg, South Dakota
Current Conditions -  °F | °C
As of 6:56 PM on Thursday 27 Nov 2014 (Local Time) from KFSD Reporting Station
Overcast Overcast  
Wind Chill: -3°   Ceiling: 10000
Heat Index: 13°   Visibility: 10mi
Dew Point:   Wind: 16mph
Humidity: 67%   Direction: 150°SSE
Pressure: 30.21"   Gusts: NA
Location:  43.43°N, 96.7°W
Report Text: KFSD 280056Z 15014KT 10SM BKN100 OVC120 M11/M16 A3021 RMK AO2 SLP268 T11061156
Loading
Personal Weather Stations






























Interactive Weather Map New forecast layout! Learn more

10-Day Weather Forecast

Advertisements
Track Severe Weather on mobile